Time;durP1;ratioP1;P1;durP2;ratioP2;P2;SDS_P1;SDS_P2;PMS_P1;PMS_P2;Temp;Humidity;BMP_temperature;BMP_pressure;BME280_temperature;BME280_humidity;BME280_pressure;Samples;Min_cycle;Max_cycle;Signal;HPM_P1;HPM_P2
2022/07/04 00:00:35;;;;;;;;;2.00;2.00;;;;;19.00;52.19;101506.00;5074249;27;46306;-59
2022/07/04 00:03:00;;;;;;;;;2.33;2.33;;;;;18.98;52.17;101505.25;5076662;27;45563;-64
2022/07/04 00:05:25;;;;;;;;;5.33;4.00;;;;;19.02;52.43;101498.69;5075914;27;45374;-62
2022/07/04 00:07:51;;;;;;;;;3.00;3.00;;;;;19.03;52.16;101504.94;5076253;27;45321;-64
2022/07/04 00:10:18;;;;;;;;;3.67;2.00;;;;;18.96;52.21;101509.91;5075187;27;46050;-63
2022/07/04 00:12:44;;;;;;;;;1.00;1.00;;;;;18.89;52.66;101507.81;5073422;27;45701;-62
2022/07/04 00:15:11;;;;;;;;;1.33;1.33;;;;;18.75;52.74;101512.44;5074139;27;45458;-60
2022/07/04 00:17:37;;;;;;;;;3.00;1.67;;;;;18.72;52.98;101518.03;5075399;28;45357;-61
2022/07/04 00:20:04;;;;;;;;;0.33;0.33;;;;;18.65;52.63;101516.78;5075183;27;45254;-60
2022/07/04 00:22:30;;;;;;;;;2.00;2.00;;;;;18.68;52.92;101521.06;5075775;27;45184;-62
2022/07/04 00:24:55;;;;;;;;;1.00;1.00;;;;;18.55;53.28;101499.56;5075657;28;45424;-67
2022/07/04 00:27:21;;;;;;;;;1.00;1.00;;;;;18.59;52.97;101517.19;5075491;27;45407;-63
2022/07/04 00:29:46;;;;;;;;;1.00;1.00;;;;;18.65;52.90;101516.78;5076880;28;46004;-60
2022/07/04 00:32:12;;;;;;;;;2.00;1.00;;;;;18.58;52.99;101510.09;5073948;27;46120;-61
2022/07/04 00:34:37;;;;;;;;;1.00;1.00;;;;;18.55;53.10;101515.72;5091783;27;45345;-64
2022/07/04 00:37:03;;;;;;;;;3.00;0.00;;;;;18.52;53.19;101510.56;5073080;28;45662;-65
2022/07/04 00:39:29;;;;;;;;;1.00;1.00;;;;;18.52;52.84;101510.56;5076643;27;45314;-68
2022/07/04 00:41:54;;;;;;;;;1.00;1.00;;;;;18.52;53.03;101513.25;5075518;27;45434;-63
2022/07/04 00:44:20;;;;;;;;;0.00;0.00;;;;;18.43;53.29;101503.16;5076711;27;45470;-67
2022/07/04 00:46:47;;;;;;;;;1.00;1.00;;;;;18.51;52.57;101520.47;5075261;27;45319;-67
2022/07/04 00:49:15;;;;;;;;;0.00;0.00;;;;;18.50;52.84;101512.53;5068620;27;46819;-64
2022/07/04 00:51:41;;;;;;;;;0.00;0.00;;;;;18.52;52.90;101513.25;5053834;28;45457;-67
2022/07/04 00:54:09;;;;;;;;;4.00;1.00;;;;;18.50;53.06;101515.22;5075537;28;45405;-65
2022/07/04 00:56:40;;;;;;;;;1.00;1.00;;;;;18.50;52.67;101521.47;5076086;27;45388;-60
2022/07/04 00:59:06;;;;;;;;;0.00;0.00;;;;;18.50;53.00;101512.53;5074423;27;46470;-61
2022/07/04 01:01:32;;;;;;;;;0.67;0.67;;;;;18.44;53.01;101519.22;5079466;28;45327;-63
2022/07/04 01:03:58;;;;;;;;;2.00;2.00;;;;;18.38;52.87;101521.50;5078620;27;45387;-65
2022/07/04 01:06:24;;;;;;;;;3.00;1.00;;;;;18.23;53.17;101496.56;5078625;27;45871;-63
2022/07/04 01:08:49;;;;;;;;;1.00;1.00;;;;;18.33;53.14;101521.84;5069958;27;45658;-65
2022/07/04 01:11:15;;;;;;;;;0.33;0.33;;;;;18.31;53.19;101529.16;5070893;27;45317;-60
2022/07/04 01:13:42;;;;;;;;;0.00;0.00;;;;;18.26;52.89;101528.66;5062657;28;45418;-59
2022/07/04 01:16:08;;;;;;;;;0.67;0.00;;;;;18.24;52.91;101523.38;5081310;27;45525;-61
2022/07/04 01:18:34;;;;;;;;;0.33;0.33;;;;;18.19;53.08;101509.38;5079030;27;46415;-67
2022/07/04 01:20:59;;;;;;;;;0.00;0.00;;;;;18.20;53.05;101524.56;5071536;27;45193;-61
2022/07/04 01:23:25;;;;;;;;;1.67;0.33;;;;;18.21;52.92;101528.13;5078429;28;45455;-63
2022/07/04 01:25:52;;;;;;;;;0.67;0.67;;;;;18.27;52.73;101527.69;5077887;27;45537;-62
2022/07/04 01:28:24;;;;;;;;;0.00;0.00;;;;;18.25;52.55;101521.56;5077864;27;45393;-61
2022/07/04 01:30:50;;;;;;;;;1.00;1.00;;;;;18.21;52.83;101520.91;5078434;27;45346;-62
2022/07/04 01:33:17;;;;;;;;;2.00;2.00;;;;;18.16;52.86;101523.06;5075546;27;45501;-68
2022/07/04 01:35:43;;;;;;;;;0.00;0.00;;;;;18.12;52.94;101529.66;5078418;27;45365;-64
2022/07/04 01:38:09;;;;;;;;;0.00;0.00;;;;;18.14;52.58;101526.84;5078980;27;45455;-67
2022/07/04 01:40:34;;;;;;;;;0.67;0.00;;;;;18.11;53.06;101522.56;5076958;27;45667;-68
2022/07/04 01:43:00;;;;;;;;;1.00;1.00;;;;;18.09;52.95;101513.72;5067076;27;45610;-67
2022/07/04 01:45:25;;;;;;;;;2.00;0.00;;;;;18.07;53.28;101518.34;5075937;27;45681;-67
2022/07/04 01:47:50;;;;;;;;;1.00;1.00;;;;;18.04;52.97;101515.03;5078610;27;45873;-66
2022/07/04 01:50:16;;;;;;;;;0.00;0.00;;;;;17.98;53.40;101519.91;5078295;27;45773;-62
2022/07/04 01:52:43;;;;;;;;;2.00;1.00;;;;;17.90;53.46;101507.97;5078183;27;45361;-63
2022/07/04 01:55:10;;;;;;;;;2.00;0.67;;;;;17.93;53.43;101530.13;5077872;27;45241;-62
2022/07/04 01:57:36;;;;;;;;;3.67;1.00;;;;;17.91;53.71;101526.69;5074378;27;48446;-65
2022/07/04 02:02:48;;;;;;;;;1.00;1.00;;;;;17.83;53.97;101517.44;5058200;28;45295;-63
2022/07/04 02:05:14;;;;;;;;;0.67;0.67;;;;;17.80;54.26;101517.66;5058155;28;45679;-63
2022/07/04 02:07:40;;;;;;;;;0.33;0.33;;;;;17.75;53.99;101509.06;5073181;27;46334;-65
2022/07/04 02:10:05;;;;;;;;;1.00;1.00;;;;;17.72;54.65;101515.53;5086996;27;45390;-63
2022/07/04 02:15:15;;;;;;;;;2.00;1.00;;;;;17.68;54.68;101520.25;5077561;27;45487;-61
2022/07/04 02:17:40;;;;;;;;;3.00;2.00;;;;;17.68;54.85;101504.09;5078141;27;46343;-62
2022/07/04 02:20:06;;;;;;;;;1.00;1.00;;;;;17.67;54.46;101496.13;5078156;27;45409;-60
2022/07/04 02:22:32;;;;;;;;;0.00;0.00;;;;;17.58;54.79;101497.66;5078098;27;45307;-64
2022/07/04 02:24:57;;;;;;;;;0.33;0.33;;;;;17.53;55.09;101494.41;5079134;27;45761;-65
2022/07/04 02:27:23;;;;;;;;;3.00;2.00;;;;;17.60;55.02;101505.63;5077097;27;45547;-67
2022/07/04 02:29:48;;;;;;;;;1.00;1.00;;;;;17.60;55.16;101506.47;5074647;27;45351;-67
2022/07/04 02:32:14;;;;;;;;;1.00;1.00;;;;;17.65;55.24;101508.81;5070861;27;45616;-68
2022/07/04 02:34:40;;;;;;;;;0.67;0.67;;;;;17.53;54.79;101491.72;5075369;27;45338;-64
2022/07/04 02:37:05;;;;;;;;;1.00;1.00;;;;;17.54;55.40;101504.19;5076969;27;45303;-66
2022/07/04 02:39:31;;;;;;;;;1.00;1.00;;;;;17.52;55.51;101507.97;5078037;27;45676;-65
2022/07/04 02:41:56;;;;;;;;;1.33;1.33;;;;;17.54;55.26;101506.88;5076829;27;45825;-65
2022/07/04 02:44:21;;;;;;;;;1.00;1.00;;;;;17.54;55.02;101511.41;5074586;27;45504;-65
2022/07/04 02:46:47;;;;;;;;;1.00;1.00;;;;;17.55;54.71;101514.00;5077164;27;46384;-65
2022/07/04 02:49:12;;;;;;;;;1.00;1.00;;;;;17.55;54.70;101500.53;5072527;27;45489;-65
2022/07/04 02:51:38;;;;;;;;;1.33;1.00;;;;;17.53;55.00;101505.16;5078199;27;45387;-65
2022/07/04 02:54:03;;;;;;;;;1.00;1.00;;;;;17.54;54.81;101511.41;5076401;27;45446;-65
2022/07/04 02:56:29;;;;;;;;;1.00;1.00;;;;;17.41;55.62;101522.16;5077655;27;45381;-66
2022/07/04 02:58:54;;;;;;;;;0.00;0.00;;;;;17.35;55.67;101518.09;5076903;28;45526;-61
2022/07/04 03:01:20;;;;;;;;;2.33;1.00;;;;;17.40;55.47;101525.81;5078536;27;45321;-60
2022/07/04 03:03:46;;;;;;;;;1.00;1.00;;;;;17.38;55.74;101523.25;5076507;27;45519;-60
2022/07/04 03:06:12;;;;;;;;;2.00;1.00;;;;;17.35;55.46;101528.00;5077962;27;45364;-65
2022/07/04 03:08:38;;;;;;;;;2.00;2.00;;;;;17.37;55.97;101526.06;5075679;27;45371;-64
2022/07/04 03:11:04;;;;;;;;;1.00;1.00;;;;;17.36;55.83;101530.56;5076969;27;45299;-64
2022/07/04 03:13:29;;;;;;;;;0.33;0.33;;;;;17.26;55.70;101528.63;5076536;27;46017;-64
2022/07/04 03:15:55;;;;;;;;;1.00;1.00;;;;;17.18;55.74;101528.28;5068121;28;46833;-62
2022/07/04 03:18:20;;;;;;;;;2.00;1.00;;;;;17.18;55.80;101537.19;5057823;28;45757;-67
2022/07/04 03:20:46;;;;;;;;;1.00;1.00;;;;;17.17;56.26;101534.63;5070053;28;45757;-63
2022/07/04 03:23:12;;;;;;;;;0.00;0.00;;;;;17.18;55.95;101539.88;5075403;27;45337;-66
2022/07/04 03:25:37;;;;;;;;;5.00;2.00;;;;;17.21;56.05;101541.53;5074226;27;45964;-65
2022/07/04 03:28:03;;;;;;;;;0.00;0.00;;;;;17.18;56.23;101545.25;5075205;27;45445;-67
2022/07/04 03:30:29;;;;;;;;;2.00;1.67;;;;;17.16;56.08;101549.03;5075888;27;45287;-67
2022/07/04 03:32:54;;;;;;;;;1.00;1.00;;;;;17.16;56.26;101546.34;5075830;28;45888;-65
2022/07/04 03:35:20;;;;;;;;;2.00;1.00;;;;;17.18;56.15;101547.09;5072761;27;46227;-66
2022/07/04 03:37:46;;;;;;;;;0.67;0.67;;;;;17.19;56.26;101541.63;5055287;28;45371;-66
2022/07/04 03:40:12;;;;;;;;;0.67;0.67;;;;;17.18;56.42;101547.94;5067897;27;45338;-60
2022/07/04 03:42:37;;;;;;;;;1.00;1.00;;;;;17.16;56.39;101551.72;5076004;27;45313;-66
2022/07/04 03:45:05;;;;;;;;;1.00;1.00;;;;;17.10;56.58;101548.50;5075176;27;46411;-64
2022/07/04 03:47:31;;;;;;;;;1.67;0.00;;;;;17.02;57.02;101540.06;5075143;27;45289;-67
2022/07/04 03:49:56;;;;;;;;;0.00;0.00;;;;;16.97;56.78;101536.84;5077004;27;45499;-65
2022/07/04 03:52:22;;;;;;;;;1.00;1.00;;;;;16.98;56.91;101540.41;5075060;27;45788;-61
2022/07/04 03:54:47;;;;;;;;;2.00;1.00;;;;;16.95;56.88;101536.09;5075681;27;46144;-60
2022/07/04 03:57:12;;;;;;;;;1.00;1.00;;;;;16.90;57.04;101524.78;5069225;27;45395;-59
2022/07/04 03:59:38;;;;;;;;;1.00;1.00;;;;;16.95;57.34;101530.72;5059747;28;45311;-65
2022/07/04 04:02:03;;;;;;;;;4.00;0.00;;;;;16.94;57.03;101537.06;5059754;27;45548;-61
2022/07/04 04:07:13;;;;;;;;;1.67;1.67;;;;;16.93;57.08;101535.34;5076134;28;45532;-61
2022/07/04 04:09:38;;;;;;;;;1.00;1.00;;;;;16.83;57.46;101528.00;5076470;27;45336;-61
2022/07/04 04:12:04;;;;;;;;;1.00;1.00;;;;;16.79;57.67;101525.50;5075358;27;45873;-61
2022/07/04 04:14:30;;;;;;;;;1.00;1.00;;;;;16.85;57.44;101536.81;5092002;27;48547;-65
2022/07/04 04:16:55;;;;;;;;;2.67;2.00;;;;;16.87;57.50;101529.50;5076225;27;45375;-63
2022/07/04 04:19:21;;;;;;;;;1.00;1.00;;;;;16.93;57.21;101542.56;5076558;27;45283;-60
2022/07/04 04:21:46;;;;;;;;;2.00;1.00;;;;;16.89;57.36;101531.13;5076239;27;45548;-61
2022/07/04 04:24:12;;;;;;;;;1.00;1.00;;;;;16.95;57.21;101551.38;5073303;28;45771;-66
2022/07/04 04:26:37;;;;;;;;;1.67;1.00;;;;;16.98;57.36;101556.53;5056210;28;45267;-67
2022/07/04 04:29:03;;;;;;;;;2.00;2.00;;;;;16.85;57.17;101542.19;5057801;27;45631;-63
2022/07/04 04:31:30;;;;;;;;;3.00;3.00;;;;;16.94;57.28;101555.88;5056493;28;45345;-64
2022/07/04 04:33:56;;;;;;;;;1.67;1.67;;;;;16.99;57.43;101563.63;5056471;28;45499;-64
2022/07/04 04:36:22;;;;;;;;;2.33;2.00;;;;;16.97;57.21;101555.66;5075565;27;45748;-62
2022/07/04 04:38:47;;;;;;;;;6.00;3.00;;;;;17.07;57.18;101555.91;5078513;27;45335;-65
2022/07/04 04:41:12;;;;;;;;;3.00;3.00;;;;;17.10;57.08;101559.25;5080118;27;45372;-66
2022/07/04 04:43:38;;;;;;;;;3.00;2.00;;;;;16.89;57.23;101520.38;5073673;27;47033;-65
2022/07/04 04:46:03;;;;;;;;;3.33;3.33;;;;;17.15;57.19;101558.06;5078177;27;45420;-63
2022/07/04 04:48:28;;;;;;;;;3.00;3.00;;;;;17.17;57.22;101558.81;5079951;27;45390;-64
2022/07/04 04:50:54;;;;;;;;;2.33;2.33;;;;;17.13;57.24;101557.31;5054973;28;45495;-65
2022/07/04 04:53:22;;;;;;;;;2.67;2.67;;;;;17.18;57.11;101557.84;5058036;28;45365;-65
2022/07/04 04:55:48;;;;;;;;;2.00;2.00;;;;;17.08;57.70;101547.75;5059217;28;45297;-64
2022/07/04 04:58:13;;;;;;;;;3.00;3.00;;;;;17.14;57.27;101559.88;5069821;28;45389;-61
2022/07/04 05:00:38;;;;;;;;;2.00;2.00;;;;;17.16;57.74;101565.16;5057115;27;45924;-63
2022/07/04 05:03:04;;;;;;;;;3.00;2.00;;;;;17.09;57.38;101549.47;5058446;28;46767;-63
2022/07/04 05:05:30;;;;;;;;;2.00;2.00;;;;;17.21;57.18;101565.72;5062018;28;45223;-62
2022/07/04 05:07:55;;;;;;;;;2.33;2.33;;;;;17.21;57.26;101563.03;5070512;28;45477;-60
2022/07/04 05:10:21;;;;;;;;;2.00;2.00;;;;;17.20;57.15;101558.63;5059477;28;45286;-63
2022/07/04 05:12:46;;;;;;;;;2.00;2.00;;;;;17.19;56.64;101556.88;5071868;27;45676;-68
2022/07/04 05:15:12;;;;;;;;;4.00;2.00;;;;;17.18;57.60;101557.84;5076219;27;45540;-68
2022/07/04 05:17:37;;;;;;;;;5.00;4.00;;;;;17.17;57.97;101562.34;5066360;28;45819;-66
2022/07/04 05:20:03;;;;;;;;;2.00;2.00;;;;;17.22;57.69;101564.75;5060429;28;45567;-66
2022/07/04 05:22:28;;;;;;;;;5.00;3.33;;;;;17.23;57.67;101561.09;5102420;27;45505;-63
2022/07/04 05:24:54;;;;;;;;;3.00;3.00;;;;;17.21;57.73;101554.97;5078407;27;45563;-63
2022/07/04 05:27:19;;;;;;;;;4.00;3.00;;;;;17.21;58.26;101557.66;5077798;27;45646;-63
2022/07/04 05:29:45;;;;;;;;;2.00;2.00;;;;;17.25;58.35;101559.16;5078132;28;45409;-68
2022/07/04 05:32:10;;;;;;;;;5.00;2.00;;;;;17.26;58.22;101564.44;5081192;27;46265;-64
2022/07/04 05:34:36;;;;;;;;;5.33;2.67;;;;;17.26;58.55;101566.25;5076317;28;45419;-66
2022/07/04 05:37:02;;;;;;;;;2.00;2.00;;;;;17.13;58.83;101563.53;5076776;27;45443;-66
2022/07/04 05:39:28;;;;;;;;;1.67;1.67;;;;;17.12;59.23;101569.03;5069256;27;46546;-67
2022/07/04 05:41:54;;;;;;;;;4.00;2.33;;;;;17.12;59.22;101563.66;5078514;27;46887;-67
2022/07/04 05:44:19;;;;;;;;;2.00;2.00;;;;;17.03;58.81;101533.75;5080352;27;45358;-63
2022/07/04 05:46:45;;;;;;;;;3.67;3.67;;;;;17.25;58.43;101561.84;5077864;27;45460;-65
2022/07/04 05:49:10;;;;;;;;;3.00;3.00;;;;;17.28;58.46;101559.81;5064897;27;45275;-62
2022/07/04 05:51:36;;;;;;;;;3.00;3.00;;;;;17.30;58.70;101549.78;5067636;27;46650;-62
2022/07/04 05:54:01;;;;;;;;;2.00;2.00;;;;;17.33;58.94;101556.81;5072303;27;45329;-61
2022/07/04 05:56:26;;;;;;;;;4.00;4.00;;;;;17.38;58.94;101565.41;5074799;27;45346;-67
2022/07/04 05:58:52;;;;;;;;;5.00;4.00;;;;;17.38;58.52;101565.41;5075906;27;45666;-62
2022/07/04 06:01:18;;;;;;;;;2.00;2.00;;;;;17.46;58.75;101570.28;5076828;27;46005;-68
2022/07/04 06:03:43;;;;;;;;;3.00;3.00;;;;;17.47;58.76;101559.41;5077106;27;45412;-68
2022/07/04 06:06:08;;;;;;;;;5.00;4.00;;;;;17.47;58.18;101558.53;5076384;27;45421;-67
2022/07/04 06:08:34;;;;;;;;;12.33;7.33;;;;;17.47;58.11;101559.41;5080299;27;45523;-66
2022/07/04 06:10:59;;;;;;;;;12.00;6.67;;;;;17.51;57.95;101566.28;5077020;27;45537;-66
2022/07/04 06:13:25;;;;;;;;;8.33;8.00;;;;;17.56;57.97;101561.44;5077359;27;45459;-62
2022/07/04 06:15:50;;;;;;;;;13.00;11.00;;;;;17.59;57.88;101579.22;5079486;27;45412;-63
2022/07/04 06:18:16;;;;;;;;;9.67;8.67;;;;;17.49;57.68;101557.47;5077113;27;45517;-63
2022/07/04 06:20:42;;;;;;;;;6.00;4.00;;;;;17.55;57.71;101562.41;5063156;27;46364;-62
2022/07/04 06:23:07;;;;;;;;;10.33;7.33;;;;;17.66;57.99;101586.72;5077515;27;45425;-63
2022/07/04 06:25:34;;;;;;;;;9.00;5.00;;;;;17.65;57.21;101566.19;5069328;27;45499;-68
2022/07/04 06:28:00;;;;;;;;;5.33;4.33;;;;;17.73;57.05;101570.22;5075821;27;45473;-61
2022/07/04 06:30:26;;;;;;;;;3.33;3.33;;;;;17.71;57.14;101564.03;5074966;27;45449;-64
2022/07/04 06:32:54;;;;;;;;;8.67;4.33;;;;;17.82;57.57;101574.91;5077061;27;45507;-66
2022/07/04 06:38:18;;;;;;;;;4.33;4.33;;;;;17.85;56.82;101574.72;5062522;27;45465;-68
2022/07/04 06:40:44;;;;;;;;;5.00;3.33;;;;;17.89;57.22;101570.84;5069535;27;46783;-61
2022/07/04 06:43:10;;;;;;;;;10.33;5.00;;;;;17.93;56.67;101570.50;5070196;27;46557;-62
2022/07/04 06:45:36;;;;;;;;;4.00;4.00;;;;;17.93;57.26;101569.63;5067388;27;45509;-60
2022/07/04 06:48:03;;;;;;;;;2.00;0.33;;;;;17.94;57.06;101560.59;5066163;28;45377;-64
2022/07/04 06:50:32;;;;;;;;;9.00;5.00;;;;;17.99;56.53;101563.81;5069677;27;46156;-63
2022/07/04 06:53:04;;;;;;;;;4.00;4.00;;;;;18.02;57.39;101571.69;5073998;27;45402;-65
2022/07/04 06:55:34;;;;;;;;;4.00;4.00;;;;;18.08;56.39;101571.22;5057156;28;45407;-62
2022/07/04 06:57:59;;;;;;;;;5.67;5.33;;;;;18.11;55.98;101578.25;5075495;27;45592;-61
2022/07/04 07:00:25;;;;;;;;;2.00;2.00;;;;;18.04;55.39;101564.34;5063818;27;45266;-63
2022/07/04 07:02:50;;;;;;;;;4.67;4.00;;;;;18.16;55.27;101578.75;5075268;27;45471;-63
2022/07/04 07:05:16;;;;;;;;;4.00;4.00;;;;;18.15;56.73;101577.91;5061507;27;45544;-66
2022/07/04 07:07:41;;;;;;;;;6.00;4.33;;;;;18.19;56.37;101574.00;5071466;27;45488;-62
2022/07/04 07:10:07;;;;;;;;;4.00;4.00;;;;;18.28;55.72;101583.25;5069416;28;45700;-63
2022/07/04 07:12:36;;;;;;;;;5.00;4.00;;;;;18.36;55.18;101585.38;5084524;27;45454;-63
2022/07/04 07:15:01;;;;;;;;;2.00;2.00;;;;;18.37;54.88;101593.38;5075495;27;45433;-61
2022/07/04 07:17:27;;;;;;;;;1.00;1.00;;;;;18.42;54.79;101584.94;5068387;27;45593;-64
2022/07/04 07:19:54;;;;;;;;;3.33;3.33;;;;;18.36;53.90;101598.84;5057539;28;45294;-62
2022/07/04 07:22:19;;;;;;;;;4.00;4.00;;;;;18.33;54.39;101585.59;5069834;27;45469;-65
2022/07/04 07:24:44;;;;;;;;;6.00;4.00;;;;;18.33;54.97;101580.22;5063621;27;45476;-65
2022/07/04 07:27:10;;;;;;;;;4.33;3.00;;;;;18.44;55.46;101585.69;5062416;27;45543;-62
2022/07/04 07:29:36;;;;;;;;;3.00;3.00;;;;;18.49;54.68;101586.19;5062854;27;47425;-66
2022/07/04 07:32:02;;;;;;;;;4.00;4.00;;;;;18.55;54.53;101591.16;5067310;27;45468;-63
2022/07/04 07:34:28;;;;;;;;;3.00;3.00;;;;;18.54;53.94;101587.59;5075200;28;45492;-65
2022/07/04 07:36:54;;;;;;;;;2.33;2.33;;;;;18.53;53.98;101593.09;5074646;27;45381;-66
2022/07/04 07:39:19;;;;;;;;;4.00;2.00;;;;;18.54;53.56;101587.59;5073432;27;46155;-63
2022/07/04 07:41:45;;;;;;;;;5.00;2.00;;;;;18.59;53.67;101587.25;5072672;27;45485;-64
2022/07/04 07:44:11;;;;;;;;;2.67;2.67;;;;;18.61;52.85;101585.28;5070465;27;45392;-63
2022/07/04 07:46:36;;;;;;;;;3.00;3.00;;;;;18.61;53.54;101585.28;5060459;28;45643;-63
2022/07/04 07:49:03;;;;;;;;;2.67;2.67;;;;;18.66;53.41;101583.16;5065220;28;46150;-64
2022/07/04 07:51:29;;;;;;;;;1.00;1.00;;;;;18.60;51.74;101566.56;5068387;27;45257;-63
2022/07/04 07:53:54;;;;;;;;;3.00;1.33;;;;;18.75;52.40;101578.91;5076383;27;45268;-62
2022/07/04 07:56:22;;;;;;;;;3.67;3.00;;;;;18.78;52.44;101579.56;5061935;28;45413;-63
2022/07/04 07:58:48;;;;;;;;;3.67;3.67;;;;;18.77;51.95;101569.75;5060154;28;45974;-63
2022/07/04 08:01:14;;;;;;;;;3.67;2.00;;;;;18.79;51.87;101577.72;5062591;28;45372;-68
2022/07/04 08:06:23;;;;;;;;;5.00;2.33;;;;;18.80;51.78;101574.91;5067527;27;45565;-65
2022/07/04 08:08:48;;;;;;;;;2.00;2.00;;;;;18.85;51.74;101578.09;5071318;28;45914;-63
2022/07/04 08:11:14;;;;;;;;;3.67;3.67;;;;;18.90;51.79;101569.69;5075590;27;45317;-66
2022/07/04 08:13:40;;;;;;;;;2.67;1.67;;;;;18.96;50.76;101573.75;5073513;27;45758;-59
2022/07/04 08:16:06;;;;;;;;;2.33;2.33;;;;;19.02;51.06;101573.31;5070416;27;45322;-59
2022/07/04 08:18:35;;;;;;;;;2.00;2.00;;;;;19.08;49.80;101567.44;5062938;28;47405;-54
2022/07/04 08:21:01;;;;;;;;;3.00;3.00;;;;;19.06;48.96;101574.78;5072993;28;45545;-52
2022/07/04 08:23:29;;;;;;;;;2.67;1.00;;;;;19.08;49.82;101568.28;5075309;27;45251;-59
2022/07/04 08:25:54;;;;;;;;;2.00;2.00;;;;;19.09;50.08;101566.44;5068428;28;45334;-60
2022/07/04 08:28:23;;;;;;;;;5.33;3.00;;;;;19.20;49.94;101555.72;5079245;27;47251;-57
2022/07/04 08:30:48;;;;;;;;;1.00;1.00;;;;;19.56;49.55;101568.22;5071695;28;45793;-57
2022/07/04 08:33:14;;;;;;;;;1.00;1.00;;;;;20.15;50.30;101559.88;5068909;27;45401;-62
2022/07/04 08:35:40;;;;;;;;;4.33;2.00;;;;;20.96;46.96;101564.00;5074790;27;45654;-62
2022/07/04 08:38:05;;;;;;;;;1.67;1.67;;;;;21.54;44.92;101555.47;5070501;27;46264;-60
2022/07/04 08:40:31;;;;;;;;;2.33;2.33;;;;;22.14;44.81;101549.25;5074540;27;45325;-59
2022/07/04 08:43:00;;;;;;;;;2.33;2.33;;;;;22.73;41.60;101545.66;5073785;28;45326;-59
2022/07/04 08:45:33;;;;;;;;;3.33;1.00;;;;;23.27;42.04;101544.22;5062104;28;45591;-58
2022/07/04 08:48:08;;;;;;;;;1.50;1.50;;;;;23.64;40.35;101535.31;5069630;28;45531;-57
2022/07/04 08:50:38;;;;;;;;;1.00;1.00;;;;;24.07;40.03;101537.41;5058837;27;45421;-59
2022/07/04 08:53:10;;;;;;;;;2.00;2.00;;;;;24.60;40.17;101539.41;5066641;27;45534;-59
2022/07/04 08:58:26;;;;;;;;;2.00;2.00;;;;;25.40;39.45;101534.91;5070185;28;45697;-58
2022/07/04 09:01:05;;;;;;;;;4.40;2.80;;;;;25.54;35.53;101534.31;5072454;27;45543;-56
2022/07/04 09:03:32;;;;;;;;;2.25;2.25;;;;;25.72;37.01;101528.81;5063757;27;45491;-56
2022/07/04 09:05:58;;;;;;;;;2.75;2.50;;;;;25.76;38.15;101522.03;5063847;27;45632;-59
2022/07/04 09:08:24;;;;;;;;;2.00;2.00;;;;;26.03;36.28;101515.50;5071236;27;46335;-63
2022/07/04 09:10:52;;;;;;;;;4.40;2.80;;;;;26.23;36.64;101503.31;5075144;27;45394;-57
2022/07/04 09:13:18;;;;;;;;;5.00;3.25;;;;;26.70;35.88;101521.88;5060629;27;45482;-60
2022/07/04 09:15:50;;;;;;;;;2.25;1.00;;;;;26.92;33.83;101514.88;5070872;27;45544;-57
2022/07/04 09:18:24;;;;;;;;;2.20;2.20;;;;;27.20;33.88;101507.22;5062900;27;47083;-64
2022/07/04 09:20:50;;;;;;;;;2.00;2.00;;;;;27.31;32.98;101515.06;5057190;27;45307;-66
2022/07/04 09:23:22;;;;;;;;;3.00;1.00;;;;;27.58;31.48;101517.41;5068153;27;45409;-56
2022/07/04 09:25:49;;;;;;;;;4.00;2.80;;;;;27.82;32.33;101518.38;5065335;27;45623;-61
2022/07/04 09:28:38;;;;;;;;;1.40;1.40;;;;;28.10;32.83;101522.38;5066178;27;45941;-58
2022/07/04 09:31:18;;;;;;;;;1.40;1.40;;;;;28.42;32.95;101504.13;5055152;27;47049;-53
2022/07/04 09:33:49;;;;;;;;;5.60;2.40;;;;;28.71;32.82;101515.22;5060872;27;45296;-58
2022/07/04 09:36:17;;;;;;;;;1.00;1.00;;;;;29.06;31.79;101512.91;5059264;28;45376;-62
2022/07/04 09:38:43;;;;;;;;;3.40;3.40;;;;;29.22;31.09;101499.06;5057404;28;47552;-61
2022/07/04 09:41:34;;;;;;;;;3.00;3.00;;;;;29.26;28.53;101499.53;5058509;28;45350;-59
2022/07/04 09:44:02;;;;;;;;;2.00;2.00;;;;;28.91;30.07;101506.53;5059474;28;45405;-58
2022/07/04 09:46:28;;;;;;;;;2.40;2.40;;;;;28.64;29.29;101508.75;5077985;27;45450;-59
2022/07/04 09:48:53;;;;;;;;;1.75;1.75;;;;;29.08;30.24;101503.47;5078287;27;45250;-57
2022/07/04 09:51:42;;;;;;;;;3.25;1.75;;;;;29.53;27.72;101506.31;5078668;27;45312;-56
2022/07/04 09:54:30;;;;;;;;;3.00;1.60;;;;;29.82;28.81;101508.19;5077350;27;45488;-52
2022/07/04 09:56:57;;;;;;;;;1.80;1.00;;;;;30.20;29.99;101507.03;5078878;27;45370;-59
2022/07/04 09:59:24;;;;;;;;;1.60;1.60;;;;;30.48;26.27;101503.59;5078166;28;46094;-59
2022/07/04 10:01:50;;;;;;;;;2.00;1.00;;;;;30.21;26.86;101494.16;5078394;27;45369;-56
2022/07/04 10:04:15;;;;;;;;;1.00;1.00;;;;;30.29;28.23;101507.78;5078585;27;45298;-58
2022/07/04 10:06:43;;;;;;;;;2.00;2.00;;;;;30.41;28.14;101511.72;5076380;27;45222;-60
2022/07/04 10:09:14;;;;;;;;;2.00;2.00;;;;;30.67;28.40;101502.13;5057101;28;45464;-64
2022/07/04 10:11:42;;;;;;;;;1.80;1.80;;;;;30.98;27.45;101499.88;5058407;28;45366;-63
2022/07/04 10:14:10;;;;;;;;;2.40;2.40;;;;;31.37;27.87;101504.00;5057936;28;45373;-63
2022/07/04 10:16:39;;;;;;;;;2.80;1.40;;;;;31.67;28.34;101500.00;5058208;28;45486;-65
2022/07/04 10:19:05;;;;;;;;;0.80;0.80;;;;;31.68;26.95;101474.19;5057798;28;47175;-56
2022/07/04 10:21:31;;;;;;;;;2.00;2.00;;;;;31.34;27.53;101510.75;5058408;28;45271;-58
2022/07/04 10:23:58;;;;;;;;;1.60;0.00;;;;;31.38;27.69;101494.72;5057029;28;45232;-58
2022/07/04 10:26:24;;;;;;;;;0.80;0.80;;;;;31.10;27.66;101470.81;5058668;28;45482;-63
2022/07/04 10:28:52;;;;;;;;;1.00;1.00;;;;;31.17;24.20;101497.50;5056712;28;46536;-60
2022/07/04 10:31:21;;;;;;;;;1.20;0.60;;;;;30.43;26.59;101484.94;5057490;28;45946;-59
2022/07/04 10:33:47;;;;;;;;;4.20;3.40;;;;;29.97;24.50;101499.97;5057206;28;45279;-59
2022/07/04 10:36:16;;;;;;;;;1.00;1.00;;;;;29.73;28.04;101499.25;5058283;28;45441;-63
2022/07/04 10:38:56;;;;;;;;;0.40;0.40;;;;;29.47;26.13;101499.69;5057470;28;45334;-63
2022/07/04 10:41:23;;;;;;;;;1.20;0.60;;;;;28.83;26.12;101501.94;5057461;28;45235;-56
2022/07/04 10:43:49;;;;;;;;;2.40;1.60;;;;;28.14;28.06;101507.34;5057443;28;45373;-53
2022/07/04 10:46:14;;;;;;;;;1.75;1.75;;;;;27.79;28.28;101497.75;5057818;28;45430;-63
2022/07/04 10:48:58;;;;;;;;;1.00;1.00;;;;;27.22;28.91;101491.53;5066462;28;46292;-63
2022/07/04 10:51:42;;;;;;;;;2.60;1.80;;;;;26.72;29.78;101492.53;5076611;27;45356;-62
2022/07/04 10:54:13;;;;;;;;;2.00;2.00;;;;;26.41;30.77;101501.34;5077740;27;45528;-60
2022/07/04 10:56:43;;;;;;;;;2.25;2.00;;;;;26.30;31.64;101490.72;5076915;28;45585;-60
2022/07/04 10:59:16;;;;;;;;;1.00;1.00;;;;;26.11;32.24;101488.28;5075979;28;45341;-63
2022/07/04 11:01:46;;;;;;;;;1.00;1.00;;;;;25.85;32.30;101477.44;5076236;27;45264;-60
2022/07/04 11:04:11;;;;;;;;;2.25;2.00;;;;;25.66;33.45;101488.59;5077211;27;45414;-66
2022/07/04 11:06:38;;;;;;;;;5.00;2.00;;;;;25.56;33.49;101494.16;5076296;27;45347;-58
2022/07/04 11:09:13;;;;;;;;;3.00;1.50;;;;;25.42;33.38;101484.69;5077730;27;46150;-58
2022/07/04 11:11:49;;;;;;;;;1.00;1.00;;;;;25.26;33.11;101493.63;5077568;27;45326;-62
2022/07/04 11:14:39;;;;;;;;;2.00;2.00;;;;;25.15;33.66;101487.59;5077333;27;45353;-58
2022/07/04 11:17:08;;;;;;;;;1.25;1.25;;;;;24.96;34.08;101480.41;5076287;28;45685;-62
2022/07/04 11:19:34;;;;;;;;;2.00;2.00;;;;;24.94;34.34;101493.34;5093513;27;46368;-58
2022/07/04 11:22:00;;;;;;;;;5.00;2.00;;;;;24.97;34.60;101487.56;5077297;28;45206;-58
2022/07/04 11:24:27;;;;;;;;;2.00;1.00;;;;;25.02;35.42;101479.84;5077635;27;45412;-56
2022/07/04 11:26:52;;;;;;;;;2.00;2.00;;;;;24.93;34.01;101486.19;5077736;27;45466;-56
2022/07/04 11:29:18;;;;;;;;;2.00;2.00;;;;;24.95;34.24;101490.44;5076228;28;47195;-59
2022/07/04 11:31:49;;;;;;;;;2.75;2.75;;;;;24.93;34.94;101480.75;5077573;27;45226;-61
2022/07/04 11:34:14;;;;;;;;;3.00;3.00;;;;;24.92;34.61;101462.72;5076018;27;45413;-56
2022/07/04 11:36:42;;;;;;;;;2.75;2.00;;;;;24.99;34.48;101482.81;5077464;27;45288;-58
2022/07/04 11:39:20;;;;;;;;;2.00;2.00;;;;;24.98;34.81;101483.81;5077374;27;45413;-58